Time;durP1;ratioP1;P1;durP2;ratioP2;P2;SDS_P1;SDS_P2;PMS_P1;PMS_P2;Temp;Humidity;BMP_temperature;BMP_pressure;BME280_temperature;BME280_humidity;BME280_pressure;Samples;Min_cycle;Max_cycle;Signal;HPM_P1;HPM_P2
2022/03/16 00:00:10;;;;;;;13.80;6.60;;;;;;;3.40;100.00;101760.91;4971597;28;20042;-78
2022/03/16 00:02:42;;;;;;;10.33;5.70;;;;;;;3.36;100.00;101762.56;4993202;28;20622;-78
2022/03/16 00:05:09;;;;;;;11.07;5.90;;;;;;;3.36;100.00;101774.72;4976913;28;20101;-78
2022/03/16 00:07:45;;;;;;;9.80;5.67;;;;;;;3.37;100.00;101764.34;4988437;28;20707;-78
2022/03/16 00:10:12;;;;;;;10.27;5.67;;;;;;;3.36;100.00;101770.41;5008389;28;20108;-78
2022/03/16 00:12:42;;;;;;;10.90;5.87;;;;;;;3.31;100.00;101776.34;4987944;28;20051;-78
2022/03/16 00:15:11;;;;;;;10.27;6.17;;;;;;;3.34;100.00;101774.69;4967524;28;20069;-78
2022/03/16 00:17:38;;;;;;;12.97;7.33;;;;;;;3.32;100.00;101783.34;4964089;28;20054;-78
2022/03/16 00:20:05;;;;;;;11.77;6.20;;;;;;;3.26;100.00;101781.44;4971076;28;20508;-78
2022/03/16 00:22:32;;;;;;;12.70;6.43;;;;;;;3.27;100.00;101785.81;4976085;28;20140;-77
2022/03/16 00:24:59;;;;;;;11.33;6.23;;;;;;;3.23;100.00;101777.88;4996746;28;20104;-78
2022/03/16 00:27:25;;;;;;;11.70;6.60;;;;;;;3.34;100.00;101785.13;4983120;28;20050;-77
2022/03/16 00:29:52;;;;;;;15.03;7.57;;;;;;;3.29;100.00;101780.66;4994608;28;20050;-77
2022/03/16 00:32:21;;;;;;;15.40;7.80;;;;;;;3.33;100.00;101788.59;4977428;28;20042;-78
2022/03/16 00:34:48;;;;;;;13.43;7.87;;;;;;;3.30;100.00;101788.53;4996269;28;20038;-78
2022/03/16 00:37:15;;;;;;;18.00;8.27;;;;;;;3.28;100.00;101782.38;4980381;28;20049;-78
2022/03/16 00:39:53;;;;;;;12.97;7.00;;;;;;;3.28;100.00;101784.06;4995747;28;20126;-78
2022/03/16 00:42:20;;;;;;;15.20;7.60;;;;;;;3.31;100.00;101779.84;4995554;28;20042;-78
2022/03/16 00:44:49;;;;;;;11.53;7.10;;;;;;;3.22;100.00;101774.38;4991501;28;20196;-78
2022/03/16 00:47:16;;;;;;;15.77;8.10;;;;;;;3.29;100.00;101778.94;4979353;28;20038;-78
2022/03/16 00:49:44;;;;;;;14.03;8.07;;;;;;;3.24;100.00;101777.03;4979038;28;20046;-78
2022/03/16 00:52:13;;;;;;;13.80;9.47;;;;;;;3.23;100.00;101780.47;4976962;28;20053;-78
2022/03/16 00:54:45;;;;;;;12.60;7.67;;;;;;;3.22;100.00;101784.81;4996507;28;20568;-78
2022/03/16 00:57:12;;;;;;;15.17;7.90;;;;;;;3.26;100.00;101783.16;4994982;28;20493;-78
2022/03/16 00:59:41;;;;;;;13.87;8.03;;;;;;;3.24;100.00;101788.34;4996325;28;20046;-78
2022/03/16 01:02:09;;;;;;;13.03;8.53;;;;;;;3.17;100.00;101791.63;4991528;28;20088;-78
2022/03/16 01:04:37;;;;;;;13.30;6.33;;;;;;;3.20;100.00;101793.47;4975975;28;20058;-78
2022/03/16 01:07:04;;;;;;;14.67;7.60;;;;;;;3.22;100.00;101791.78;4970700;28;20042;-77
2022/03/16 01:09:34;;;;;;;11.77;7.07;;;;;;;3.21;100.00;101790.00;4959778;28;20129;-78
2022/03/16 01:12:10;;;;;;;16.93;7.70;;;;;;;3.14;100.00;101794.16;4972408;28;20574;-78
2022/03/16 01:14:37;;;;;;;16.97;8.30;;;;;;;3.14;100.00;101782.84;4990699;28;20051;-79
2022/03/16 01:17:03;;;;;;;12.83;7.77;;;;;;;3.10;100.00;101774.91;4975665;28;20050;-78
2022/03/16 01:19:31;;;;;;;16.13;9.23;;;;;;;3.06;100.00;101775.66;4973810;28;20469;-77
2022/03/16 01:22:02;;;;;;;17.07;9.10;;;;;;;2.99;100.00;101773.72;4991020;28;20457;-78
2022/03/16 01:24:29;;;;;;;16.83;8.87;;;;;;;3.03;100.00;101782.56;4970926;28;20042;-78
2022/03/16 01:26:57;;;;;;;18.63;9.70;;;;;;;3.07;100.00;101777.44;4980874;28;20059;-78
2022/03/16 01:29:24;;;;;;;19.13;10.00;;;;;;;3.05;100.00;101780.84;4973528;28;20100;-78
2022/03/16 01:31:52;;;;;;;18.20;9.13;;;;;;;3.02;100.00;101784.25;4989705;28;20532;-77
2022/03/16 01:34:21;;;;;;;16.83;9.20;;;;;;;3.01;100.00;101789.44;4971039;28;20101;-77
2022/03/16 01:36:49;;;;;;;21.43;10.43;;;;;;;2.97;100.00;101796.31;4986395;28;20042;-77
2022/03/16 01:39:15;;;;;;;19.33;10.57;;;;;;;2.82;100.00;101799.34;4975117;28;20042;-77
2022/03/16 01:41:42;;;;;;;19.37;10.87;;;;;;;2.89;100.00;101799.53;4970373;28;20139;-77
2022/03/16 01:44:10;;;;;;;19.93;10.63;;;;;;;2.78;100.00;101805.34;4972081;28;20046;-78
2022/03/16 01:46:42;;;;;;;17.90;10.37;;;;;;;2.64;100.00;101801.41;4971324;28;20047;-78
2022/03/16 01:49:09;;;;;;;20.47;11.57;;;;;;;2.56;100.00;101797.69;4989808;28;20054;-77
2022/03/16 01:51:36;;;;;;;23.07;11.43;;;;;;;2.58;100.00;101805.56;4990895;28;20577;-77
2022/03/16 01:54:03;;;;;;;23.53;11.33;;;;;;;2.53;100.00;101800.22;4973766;28;20051;-78
2022/03/16 01:56:30;;;;;;;22.93;11.33;;;;;;;2.46;100.00;101806.09;4967263;28;20408;-78
2022/03/16 01:58:57;;;;;;;23.57;11.17;;;;;;;2.45;100.00;101793.88;4949750;28;20051;-78
2022/03/16 02:01:23;;;;;;;22.83;11.60;;;;;;;2.42;100.00;101793.75;4962893;28;20100;-79
2022/03/16 02:03:50;;;;;;;26.33;13.17;;;;;;;2.32;100.00;101796.94;4954054;28;20039;-79
2022/03/16 02:06:17;;;;;;;21.53;11.27;;;;;;;2.32;100.00;101802.16;4974859;28;20412;-77
2022/03/16 02:08:45;;;;;;;27.60;11.73;;;;;;;2.19;100.00;101809.59;4957925;28;20049;-77
2022/03/16 02:11:12;;;;;;;22.23;10.93;;;;;;;2.14;100.00;101802.47;5033467;23;20097;-81
2022/03/16 02:13:38;;;;;;;22.67;11.50;;;;;;;2.13;100.00;101809.41;4972395;28;20464;-83
2022/03/16 02:16:05;;;;;;;23.43;11.97;;;;;;;2.02;100.00;101812.47;4965822;28;20469;-83
2022/03/16 02:18:32;;;;;;;24.00;10.63;;;;;;;1.99;100.00;101810.66;4959552;28;20038;-81
2022/03/16 02:21:00;;;;;;;23.33;11.53;;;;;;;1.98;100.00;101816.72;4963763;28;20034;-82
2022/03/16 02:23:27;;;;;;;21.37;10.83;;;;;;;1.88;100.00;101817.25;4959773;28;20449;-83
2022/03/16 02:25:54;;;;;;;22.73;12.23;;;;;;;1.88;100.00;101814.63;4966409;28;20035;-83
2022/03/16 02:28:22;;;;;;;22.47;11.37;;;;;;;1.88;100.00;101825.06;4975187;28;20042;-81
2022/03/16 02:30:49;;;;;;;22.50;11.83;;;;;;;1.76;100.00;101824.63;4967673;28;20089;-82
2022/03/16 02:33:16;;;;;;;18.43;11.00;;;;;;;1.67;100.00;101836.50;4957437;28;20085;-81
2022/03/16 02:35:43;;;;;;;19.53;11.20;;;;;;;1.64;100.00;101840.75;4981084;28;20508;-81
2022/03/16 02:38:09;;;;;;;22.03;10.43;;;;;;;1.63;100.00;101852.88;4957606;28;20038;-82
2022/03/16 02:40:36;;;;;;;22.27;11.53;;;;;;;1.62;100.00;101845.03;4956441;28;20043;-80
2022/03/16 02:43:03;;;;;;;19.40;10.63;;;;;;;1.59;100.00;101847.50;4961503;28;20563;-82
2022/03/16 02:45:30;;;;;;;22.90;12.80;;;;;;;1.51;100.00;101855.03;4962218;28;20050;-81
2022/03/16 02:47:56;;;;;;;24.13;11.37;;;;;;;1.47;100.00;101857.50;4961067;28;20071;-80
2022/03/16 02:50:23;;;;;;;23.20;11.40;;;;;;;1.44;100.00;101860.88;4963815;28;20034;-79
2022/03/16 02:52:50;;;;;;;25.10;12.40;;;;;;;1.41;100.00;101866.84;4956362;28;20043;-82
2022/03/16 02:55:36;;;;;;;22.27;10.47;;;;;;;1.31;100.00;101866.47;4959426;28;20061;-82
2022/03/16 02:58:03;;;;;;;24.13;11.03;;;;;;;1.32;100.00;101863.91;4949939;28;20038;-80
2022/03/16 03:00:29;;;;;;;23.60;11.57;;;;;;;1.27;100.00;101870.69;4973398;28;20042;-81
2022/03/16 03:02:56;;;;;;;22.40;11.67;;;;;;;1.25;100.00;101874.94;4978788;28;20052;-80
2022/03/16 03:05:23;;;;;;;24.10;12.30;;;;;;;1.33;100.00;101877.81;4965910;28;20459;-80
2022/03/16 03:07:50;;;;;;;23.03;11.43;;;;;;;1.24;100.00;101888.78;4951767;28;20073;-81
2022/03/16 03:10:34;;;;;;;23.43;12.07;;;;;;;1.22;100.00;101895.66;4995840;28;20046;-81
2022/03/16 03:13:38;;;;;;;18.93;11.63;;;;;;;1.27;100.00;101891.53;4996149;28;20062;-81
2022/03/16 03:17:02;;;;;;;21.23;11.33;;;;;;;1.45;100.00;101914.75;5003206;28;20045;-81
2022/03/16 03:20:10;;;;;;;21.10;11.10;;;;;;;1.40;100.00;101911.06;5007887;28;20288;-81
2022/03/16 03:23:26;;;;;;;26.17;12.70;;;;;;;1.51;100.00;101914.06;4995826;28;20050;-82
2022/03/16 03:27:12;;;;;;;23.57;12.87;;;;;;;1.51;100.00;101927.06;4986641;28;20057;-82
2022/03/16 03:30:39;;;;;;;22.73;11.50;;;;;;;1.55;100.00;101944.59;5004567;28;20042;-81
2022/03/16 03:33:26;;;;;;;25.27;11.73;;;;;;;1.53;100.00;101944.56;5005904;28;20081;-82
2022/03/16 03:36:22;;;;;;;23.63;10.67;;;;;;;1.59;100.00;101955.16;4994927;28;20054;-82
2022/03/16 03:39:32;;;;;;;21.37;10.37;;;;;;;1.62;100.00;101954.41;4998877;28;20027;-82
2022/03/16 03:42:32;;;;;;;23.90;11.30;;;;;;;1.80;100.00;101951.59;4995368;28;20113;-81
2022/03/16 03:45:13;;;;;;;20.07;10.83;;;;;;;1.79;100.00;101955.03;4994945;28;20129;-80
2022/03/16 03:47:39;;;;;;;22.40;11.40;;;;;;;1.80;100.00;101952.47;4967467;28;20070;-81
2022/03/16 03:50:06;;;;;;;18.37;11.67;;;;;;;1.82;100.00;101961.22;4964253;28;20104;-80
2022/03/16 03:52:33;;;;;;;23.40;10.77;;;;;;;1.83;100.00;101972.53;4976343;28;20038;-79
2022/03/16 03:55:00;;;;;;;34.30;15.97;;;;;;;2.30;100.00;101971.59;5000510;28;20112;-81
2022/03/16 03:57:26;;;;;;;32.00;16.03;;;;;;;2.26;100.00;101970.59;4984074;28;20113;-82
2022/03/16 03:59:53;;;;;;;27.03;12.30;;;;;;;2.22;100.00;101978.28;4985372;28;20053;-80
2022/03/16 04:02:19;;;;;;;28.67;12.47;;;;;;;2.20;100.00;101980.84;4961016;28;20042;-82
2022/03/16 04:04:46;;;;;;;22.33;11.70;;;;;;;2.17;100.00;101988.53;4946014;28;20050;-80
2022/03/16 04:07:13;;;;;;;25.20;10.70;;;;;;;2.19;100.00;101984.28;4979206;28;20628;-81
2022/03/16 04:09:40;;;;;;;22.37;11.53;;;;;;;2.17;100.00;101990.25;4991569;28;20038;-80
2022/03/16 04:12:07;;;;;;;19.90;10.43;;;;;;;2.19;100.00;101996.44;4955682;28;20043;-82
2022/03/16 04:14:34;;;;;;;23.60;11.20;;;;;;;2.23;100.00;101983.53;4945247;28;20054;-82
2022/03/16 04:17:01;;;;;;;24.13;12.63;;;;;;;2.28;100.00;101994.16;4960095;28;20104;-80
2022/03/16 04:19:27;;;;;;;30.23;13.10;;;;;;;2.33;100.00;101994.28;4942736;28;20078;-83
2022/03/16 04:21:54;;;;;;;25.17;15.13;;;;;;;2.30;100.00;101999.41;4934184;28;20559;-83
2022/03/16 04:24:21;;;;;;;29.23;14.30;;;;;;;2.39;100.00;102002.31;4946226;28;20050;-82
2022/03/16 04:26:47;;;;;;;32.33;15.57;;;;;;;2.35;100.00;102006.53;4945982;28;20046;-80
2022/03/16 04:29:14;;;;;;;37.10;17.50;;;;;;;2.43;100.00;102004.19;4985410;28;20070;-82
2022/03/16 04:31:41;;;;;;;32.37;17.47;;;;;;;2.53;100.00;102009.78;4960781;28;20050;-82
2022/03/16 04:34:07;;;;;;;35.83;16.87;;;;;;;2.49;100.00;102007.91;4976329;28;20104;-81
2022/03/16 04:36:34;;;;;;;34.50;19.10;;;;;;;2.58;100.00;102003.81;4940080;28;20472;-82
2022/03/16 04:39:01;;;;;;;33.37;16.40;;;;;;;2.55;100.00;102015.06;4977585;28;20048;-82
2022/03/16 04:41:27;;;;;;;34.47;16.40;;;;;;;2.64;100.00;102023.19;4950393;28;20042;-81
2022/03/16 04:43:56;;;;;;;35.57;17.30;;;;;;;2.59;100.00;102021.25;4961608;28;20077;-82
2022/03/16 04:46:22;;;;;;;40.00;17.67;;;;;;;2.53;100.00;102029.78;4982177;28;20050;-82
2022/03/16 04:48:49;;;;;;;35.33;16.70;;;;;;;2.66;100.00;102031.94;4958834;28;20417;-83
2022/03/16 04:51:16;;;;;;;33.77;16.33;;;;;;;2.80;100.00;102030.69;4959237;28;20485;-83
2022/03/16 04:53:43;;;;;;;31.57;15.70;;;;;;;2.79;100.00;102036.75;4977692;28;20057;-82
2022/03/16 04:56:09;;;;;;;34.00;17.70;;;;;;;2.71;100.00;102048.66;4957965;28;20045;-83
2022/03/16 04:58:36;;;;;;;29.43;15.83;;;;;;;2.76;100.00;102054.00;4964248;28;20046;-81
2022/03/16 05:01:03;;;;;;;29.57;14.90;;;;;;;2.77;100.00;102061.88;4961071;28;20516;-82
2022/03/16 05:03:29;;;;;;;28.23;14.10;;;;;;;2.80;100.00;102069.84;4964582;28;20035;-83
2022/03/16 05:05:57;;;;;;;48.17;16.53;;;;;;;2.62;100.00;102079.66;4966487;28;20054;-81
2022/03/16 05:08:24;;;;;;;26.43;13.87;;;;;;;2.60;100.00;102076.09;4966577;28;20057;-83
2022/03/16 05:10:50;;;;;;;22.73;12.53;;;;;;;2.57;100.00;102080.31;4943992;28;20046;-81
2022/03/16 05:13:17;;;;;;;35.10;13.70;;;;;;;2.67;100.00;102078.06;4945387;28;20046;-81
2022/03/16 05:15:48;;;;;;;25.07;13.00;;;;;;;2.60;100.00;102081.31;4961058;28;20509;-83
2022/03/16 05:18:14;;;;;;;25.77;13.63;;;;;;;2.65;100.00;102086.69;4957790;28;20141;-81
2022/03/16 05:20:41;;;;;;;25.33;13.00;;;;;;;2.62;100.00;102082.25;4973393;28;20494;-82
2022/03/16 05:23:08;;;;;;;24.90;12.87;;;;;;;2.55;100.00;102088.09;4958113;28;20054;-81
2022/03/16 05:25:35;;;;;;;23.77;12.83;;;;;;;2.71;100.00;102090.41;4965287;28;20120;-81
2022/03/16 05:28:02;;;;;;;28.63;13.03;;;;;;;2.75;100.00;102087.06;4960776;28;20058;-82
2022/03/16 05:30:29;;;;;;;22.37;12.60;;;;;;;2.74;100.00;102089.63;4974634;28;20101;-80
2022/03/16 05:33:00;;;;;;;43.77;15.03;;;;;;;2.61;100.00;102085.72;4976503;28;20038;-81
2022/03/16 05:35:28;;;;;;;27.63;13.80;;;;;;;2.74;100.00;102093.13;4967692;28;20070;-80
2022/03/16 05:37:55;;;;;;;23.43;13.27;;;;;;;2.69;100.00;102096.38;4974319;28;20069;-81
2022/03/16 05:40:21;;;;;;;28.27;13.53;;;;;;;2.70;100.00;102092.97;4976568;28;20050;-81
2022/03/16 05:42:48;;;;;;;27.63;14.13;;;;;;;2.71;100.00;102100.84;4974639;28;20058;-82
2022/03/16 05:45:20;;;;;;;32.03;15.13;;;;;;;2.80;100.00;102098.56;4956838;28;20074;-83
2022/03/16 05:47:47;;;;;;;26.33;13.10;;;;;;;2.75;100.00;102105.31;4963239;28;20042;-84
2022/03/16 05:50:14;;;;;;;27.80;15.43;;;;;;;2.84;100.00;102107.34;4963619;28;20073;-80
2022/03/16 05:52:43;;;;;;;27.63;13.97;;;;;;;2.83;100.00;102100.38;4978612;28;20053;-83
2022/03/16 05:55:10;;;;;;;26.37;14.10;;;;;;;2.80;100.00;102106.38;4978724;28;20152;-82
2022/03/16 05:57:39;;;;;;;29.93;14.07;;;;;;;2.80;100.00;102109.00;4969455;28;20050;-83
2022/03/16 06:00:14;;;;;;;27.33;13.97;;;;;;;2.84;100.00;102109.97;4949890;28;20046;-83
2022/03/16 06:02:42;;;;;;;26.03;12.83;;;;;;;2.89;100.00;102110.13;4961384;28;20038;-83
2022/03/16 06:05:08;;;;;;;21.37;13.00;;;;;;;2.94;100.00;102111.16;4961297;28;20038;-83
2022/03/16 06:07:37;;;;;;;24.43;13.23;;;;;;;2.96;100.00;102123.47;4978145;28;20050;-83
2022/03/16 06:10:05;;;;;;;22.20;11.43;;;;;;;3.05;100.00;102118.53;4973979;28;20131;-80
2022/03/16 06:12:32;;;;;;;22.73;12.03;;;;;;;2.96;100.00;102119.97;4960293;28;20489;-82
2022/03/16 06:15:01;;;;;;;23.13;12.10;;;;;;;3.02;100.00;102123.63;4957289;28;20042;-83
2022/03/16 06:17:28;;;;;;;24.27;11.63;;;;;;;3.19;100.00;102121.59;4977881;28;20046;-83
2022/03/16 06:19:55;;;;;;;20.07;10.57;;;;;;;3.21;100.00;102125.16;4960992;28;20042;-82
2022/03/16 06:22:21;;;;;;;21.93;10.17;;;;;;;3.20;100.00;102127.72;4959380;28;20448;-84
2022/03/16 06:24:48;;;;;;;20.70;11.33;;;;;;;3.24;100.00;102124.38;4960671;28;20042;-84
2022/03/16 06:27:17;;;;;;;18.83;9.90;;;;;;;3.27;100.00;102125.34;4958958;28;20096;-82
2022/03/16 06:29:44;;;;;;;20.80;10.60;;;;;;;3.19;100.00;102134.66;4982752;28;20050;-83
2022/03/16 06:32:11;;;;;;;15.40;8.83;;;;;;;3.10;100.00;102132.63;4960146;28;20038;-83
2022/03/16 06:34:38;;;;;;;16.63;8.83;;;;;;;3.12;100.00;102123.97;4940834;28;20134;-83
2022/03/16 06:37:04;;;;;;;15.83;9.20;;;;;;;3.25;100.00;102121.81;4951953;28;20046;-85
2022/03/16 06:39:31;;;;;;;17.80;9.23;;;;;;;3.34;100.00;102115.97;4952717;28;20042;-84
2022/03/16 06:41:58;;;;;;;17.17;8.40;;;;;;;3.16;100.00;102121.50;4956057;28;20101;-83
2022/03/16 06:44:25;;;;;;;17.67;9.03;;;;;;;3.05;100.00;102123.75;4950756;28;20077;-83
2022/03/16 06:46:52;;;;;;;16.07;8.73;;;;;;;2.97;100.00;102125.22;4959518;28;20517;-82
2022/03/16 06:49:19;;;;;;;14.83;8.20;;;;;;;2.97;100.00;102130.44;4959538;28;20511;-82
2022/03/16 06:51:45;;;;;;;15.73;8.43;;;;;;;2.97;100.00;102130.44;4958791;28;20046;-82
2022/03/16 06:54:12;;;;;;;15.23;7.90;;;;;;;2.92;100.00;102132.00;4959642;28;20050;-82
2022/03/16 06:56:38;;;;;;;14.27;7.87;;;;;;;3.02;100.00;102141.03;4959622;28;20038;-82
2022/03/16 06:59:05;;;;;;;15.70;8.23;;;;;;;3.08;100.00;102139.53;4971461;28;20047;-84
2022/03/16 07:01:32;;;;;;;13.23;7.50;;;;;;;3.21;100.00;102146.06;4946590;28;20457;-84
2022/03/16 07:03:59;;;;;;;13.63;7.43;;;;;;;3.05;100.00;102147.25;4958945;28;20089;-83
2022/03/16 07:06:25;;;;;;;12.10;6.93;;;;;;;3.12;100.00;102144.88;4958328;28;20050;-81
2022/03/16 07:08:52;;;;;;;13.73;7.50;;;;;;;3.12;100.00;102145.75;4958409;28;20054;-81
2022/03/16 07:11:19;;;;;;;12.97;6.63;;;;;;;3.09;100.00;102140.41;4941698;28;20035;-82
2022/03/16 07:16:32;;;;;;;13.30;6.40;;;;;;;3.20;100.00;102148.63;4961060;28;20042;-81
2022/03/16 07:19:01;;;;;;;15.60;7.93;;;;;;;3.26;100.00;102151.41;4943739;28;20078;-83
2022/03/16 07:21:28;;;;;;;13.33;7.23;;;;;;;3.30;100.00;102158.53;4941973;28;20058;-82
2022/03/16 07:23:55;;;;;;;13.30;7.67;;;;;;;3.20;100.00;102152.13;4957676;28;20050;-84
2022/03/16 07:26:22;;;;;;;12.57;7.17;;;;;;;3.35;100.00;102157.81;4949501;28;20465;-82
2022/03/16 07:28:50;;;;;;;14.33;8.23;;;;;;;3.39;100.00;102156.22;4952517;28;20042;-82
2022/03/16 07:31:17;;;;;;;13.87;7.10;;;;;;;3.36;100.00;102162.25;4938983;28;20077;-81
2022/03/16 07:33:47;;;;;;;11.90;6.87;;;;;;;3.35;100.00;102165.66;4957262;28;20042;-84
2022/03/16 07:36:13;;;;;;;14.07;7.50;;;;;;;3.34;100.00;102166.50;4957496;28;20058;-83
2022/03/16 07:38:40;;;;;;;14.40;8.03;;;;;;;3.50;100.00;102177.47;4974167;28;20049;-82
2022/03/16 07:41:06;;;;;;;10.77;6.03;;;;;;;3.57;100.00;102169.00;4952668;28;20045;-81
2022/03/16 07:43:33;;;;;;;11.90;6.33;;;;;;;3.48;100.00;102182.66;4959495;28;20053;-81
2022/03/16 07:46:00;;;;;;;9.70;5.80;;;;;;;3.35;100.00;102170.00;4956512;28;20094;-82
2022/03/16 07:48:27;;;;;;;10.47;5.40;;;;;;;3.31;100.00;102174.25;4947555;28;20735;-82
2022/03/16 07:50:54;;;;;;;8.93;4.80;;;;;;;3.33;100.00;102177.78;4940206;28;20043;-83
2022/03/16 07:53:20;;;;;;;11.00;6.10;;;;;;;3.42;100.00;102179.81;4947861;28;20054;-83
2022/03/16 07:55:49;;;;;;;9.37;4.93;;;;;;;3.39;100.00;102178.00;4960668;28;20105;-81
2022/03/16 07:58:16;;;;;;;9.30;5.00;;;;;;;3.39;100.00;102185.84;4959280;28;20041;-82
2022/03/16 08:00:42;;;;;;;12.23;5.77;;;;;;;3.47;100.00;102180.88;4943295;28;20046;-83
2022/03/16 08:03:09;;;;;;;8.13;5.23;;;;;;;3.47;100.00;102173.03;4941973;28;20050;-83
2022/03/16 08:05:36;;;;;;;12.00;6.67;;;;;;;3.50;100.00;102180.06;4958445;28;20050;-82
2022/03/16 08:08:02;;;;;;;11.03;5.97;;;;;;;3.61;100.00;102183.91;4943694;28;20741;-83
2022/03/16 08:10:29;;;;;;;10.43;6.00;;;;;;;3.68;100.00;102180.66;4961050;28;20065;-83
2022/03/16 08:12:56;;;;;;;12.43;6.67;;;;;;;3.78;100.00;102182.72;4953884;28;20515;-81
2022/03/16 08:15:34;;;;;;;10.10;5.60;;;;;;;3.70;100.00;102183.31;4968711;28;20053;-82
2022/03/16 08:18:20;;;;;;;11.93;6.00;;;;;;;3.80;100.00;102185.41;4991178;28;20046;-82
2022/03/16 08:20:56;;;;;;;12.57;6.10;;;;;;;3.79;100.00;102191.47;4971447;28;20046;-83
2022/03/16 08:23:38;;;;;;;12.70;6.87;;;;;;;3.78;100.00;102192.28;4971402;28;20051;-82
2022/03/16 08:26:21;;;;;;;12.63;5.97;;;;;;;3.81;100.00;102192.41;4968231;28;20089;-82
2022/03/16 08:29:33;;;;;;;10.40;6.37;;;;;;;3.96;100.00;102195.50;4983650;28;20097;-82
2022/03/16 08:32:43;;;;;;;8.07;4.80;;;;;;;4.11;100.00;102193.34;5007161;28;20065;-83
2022/03/16 08:35:29;;;;;;;11.00;5.87;;;;;;;4.27;100.00;102205.16;4994864;28;20050;-82
2022/03/16 08:38:20;;;;;;;9.38;5.90;;;;;;;4.29;100.00;102199.97;5002218;28;20042;-82
2022/03/16 08:41:49;;;;;;;10.90;5.60;;;;;;;4.27;100.00;102197.31;4993773;28;20560;-81
2022/03/16 08:44:45;;;;;;;;;;;;;;;4.11;100.00;102206.41;4998026;28;20042;-82
2022/03/16 08:47:54;;;;;;;11.60;5.30;;;;;;;4.09;100.00;102199.38;4996046;28;19913;-83
2022/03/16 08:51:08;;;;;;;9.83;5.17;;;;;;;4.22;100.00;102202.41;5009851;28;20045;-83
2022/03/16 08:53:58;;;;;;;11.93;6.00;;;;;;;4.36;100.00;102205.44;4991808;28;20065;-81
2022/03/16 08:56:55;;;;;;;10.80;6.07;;;;;;;4.43;100.00;102211.72;4998686;28;20049;-82
2022/03/16 08:59:23;;;;;;;11.70;6.27;;;;;;;4.40;100.00;102202.06;4977953;28;20061;-82
2022/03/16 09:01:50;;;;;;;11.00;6.53;;;;;;;4.42;100.00;102194.25;4975574;28;20106;-82
2022/03/16 09:04:18;;;;;;;11.10;6.40;;;;;;;4.18;100.00;102204.88;4960854;28;20043;-83
2022/03/16 09:06:44;;;;;;;9.50;5.90;;;;;;;4.21;100.00;102216.34;4988637;28;20061;-81
2022/03/16 09:09:11;;;;;;;11.23;7.03;;;;;;;4.23;100.00;102211.16;4952955;28;20088;-83
2022/03/16 09:11:38;;;;;;;10.53;5.63;;;;;;;4.32;100.00;102216.66;4987941;28;20485;-83
2022/03/16 09:14:06;;;;;;;10.37;5.97;;;;;;;4.41;100.00;102210.81;4965453;28;20052;-82
2022/03/16 09:16:33;;;;;;;9.90;5.67;;;;;;;4.35;100.00;102221.97;4969118;28;20038;-83
2022/03/16 09:19:00;;;;;;;11.47;6.20;;;;;;;4.51;100.00;102216.34;4973992;28;20053;-83
2022/03/16 09:21:27;;;;;;;9.97;5.93;;;;;;;4.61;100.00;102221.84;4992311;28;20049;-83
2022/03/16 09:23:54;;;;;;;10.77;6.03;;;;;;;4.45;100.00;102233.59;4981463;28;20050;-83
2022/03/16 09:26:21;;;;;;;10.97;5.83;;;;;;;4.66;100.00;102228.13;4968861;28;20053;-82
2022/03/16 09:28:49;;;;;;;9.40;5.70;;;;;;;4.78;100.00;102236.31;4975256;28;20061;-83
2022/03/16 09:31:16;;;;;;;11.30;6.40;;;;;;;4.74;100.00;102231.84;4970004;28;20049;-83
2022/03/16 09:33:43;;;;;;;11.40;5.70;;;;;;;4.77;100.00;102231.91;4992249;28;20047;-83
2022/03/16 09:36:10;;;;;;;11.43;6.10;;;;;;;4.94;100.00;102233.28;4972355;28;20194;-83
2022/03/16 09:38:38;;;;;;;11.83;5.43;;;;;;;5.10;100.00;102234.59;4986383;28;20050;-82
2022/03/16 09:41:05;;;;;;;11.20;5.70;;;;;;;5.32;100.00;102230.81;4986806;28;20061;-83
2022/03/16 09:43:33;;;;;;;10.40;5.70;;;;;;;5.57;100.00;102237.56;4987395;28;20034;-84
2022/03/16 09:46:09;;;;;;;9.43;5.23;;;;;;;5.54;100.00;102233.13;4958269;28;20069;-84
2022/03/16 09:48:37;;;;;;;10.80;6.07;;;;;;;5.52;100.00;102239.19;4963952;28;20042;-84
2022/03/16 09:51:09;;;;;;;8.83;5.87;;;;;;;5.45;100.00;102245.09;4968278;28;20050;-83
2022/03/16 09:53:36;;;;;;;9.03;4.67;;;;;;;5.40;100.00;102247.63;4975036;28;20050;-83
2022/03/16 09:56:05;;;;;;;9.87;5.27;;;;;;;5.46;100.00;102246.88;4982341;28;20034;-83
2022/03/16 09:58:31;;;;;;;8.27;5.03;;;;;;;5.53;100.00;102252.31;4992737;28;20100;-82
2022/03/16 10:00:58;;;;;;;9.27;5.40;;;;;;;5.72;100.00;102250.16;5008572;28;20046;-84
2022/03/16 10:03:28;;;;;;;5.90;4.37;;;;;;;5.79;100.00;102245.09;4994353;28;20066;-84
2022/03/16 10:05:57;;;;;;;9.03;4.93;;;;;;;5.90;100.00;102248.00;4985392;28;20054;-84
2022/03/16 10:08:32;;;;;;;13.63;6.30;;;;;;;6.11;100.00;102247.66;4979600;28;20054;-83
2022/03/16 10:14:14;;;;;;;10.20;5.33;;;;;;;6.04;100.00;102248.34;4960194;28;19922;-83
2022/03/16 10:19:49;;;;;;;;;;;;;;;6.33;100.00;102256.91;4971448;28;20049;-84
2022/03/16 10:22:27;;;;;;;12.43;5.80;;;;;;;6.39;100.00;102251.75;4965916;28;19922;-84
2022/03/16 10:25:03;;;;;;;10.53;6.37;;;;;;;6.42;100.00;102258.00;4991228;28;20040;-83
2022/03/16 10:27:32;;;;;;;10.20;5.25;;;;;;;6.38;100.00;102261.38;4955668;28;20042;-82
2022/03/16 10:29:59;;;;;;;9.03;4.83;;;;;;;6.36;100.00;102254.34;4965762;28;20109;-82
2022/03/16 10:32:33;;;;;;;8.93;5.20;;;;;;;6.37;100.00;102258.72;4974269;28;20050;-84
2022/03/16 10:35:05;;;;;;;9.20;5.13;;;;;;;6.54;100.00;102270.50;4954114;28;20043;-83
2022/03/16 10:37:34;;;;;;;9.53;6.07;;;;;;;6.49;100.00;102261.66;4968214;28;20342;-82
2022/03/16 10:40:15;;;;;;;8.80;4.93;;;;;;;6.45;100.00;102260.66;4988057;28;20137;-83
2022/03/16 10:48:14;;;;;;;10.30;6.17;;;;;;;6.33;100.00;102280.53;4989438;28;20054;-83
2022/03/16 10:50:42;;;;;;;11.50;6.03;;;;;;;6.63;100.00;102277.69;4957236;28;20040;-81
2022/03/16 10:53:11;;;;;;;10.93;5.70;;;;;;;6.73;100.00;102269.16;4979889;28;20034;-81
2022/03/16 10:55:38;;;;;;;9.33;6.03;;;;;;;6.77;100.00;102268.34;4986694;28;20046;-81
2022/03/16 10:58:06;;;;;;;10.37;5.97;;;;;;;6.85;100.00;102269.41;4958217;28;20054;-82
2022/03/16 11:00:34;;;;;;;11.00;6.00;;;;;;;6.80;100.00;102264.91;4974551;28;20054;-83
2022/03/16 11:03:15;;;;;;;9.10;4.93;;;;;;;6.91;100.00;102268.66;4972089;28;20042;-82
2022/03/16 11:05:43;;;;;;;8.73;5.37;;;;;;;6.71;100.00;102270.84;4976620;28;20050;-81
2022/03/16 11:08:13;;;;;;;8.93;6.17;;;;;;;6.93;100.00;102275.69;4973144;28;20100;-82
2022/03/16 11:10:41;;;;;;;11.23;6.80;;;;;;;7.00;100.00;102279.34;4983142;28;20062;-82
2022/03/16 11:13:28;;;;;;;8.57;5.20;;;;;;;7.14;100.00;102272.59;4974262;28;20034;-82
2022/03/16 11:15:57;;;;;;;10.63;5.97;;;;;;;7.50;100.00;102269.78;4972195;28;20050;-81
2022/03/16 11:18:24;;;;;;;10.47;5.90;;;;;;;7.47;100.00;102276.72;4991864;28;20027;-82
2022/03/16 11:20:54;;;;;;;14.57;7.47;;;;;;;7.74;98.18;102273.72;4990776;28;20073;-81
2022/03/16 11:26:28;;;;;;;9.17;5.07;;;;;;;7.83;96.28;102280.00;4962770;28;20421;-82
2022/03/16 11:29:13;;;;;;;9.07;5.97;;;;;;;7.95;97.34;102281.94;4972038;28;20050;-80
2022/03/16 11:31:42;;;;;;;7.87;4.77;;;;;;;8.04;94.70;102273.31;4981548;28;20046;-81
2022/03/16 11:34:10;;;;;;;8.37;5.10;;;;;;;8.11;92.63;102272.56;4967810;28;20070;-82
2022/03/16 11:36:42;;;;;;;10.53;5.97;;;;;;;8.11;94.42;102272.56;4964156;28;20038;-82
2022/03/16 11:39:14;;;;;;;10.93;6.47;;;;;;;8.15;92.01;102277.88;4958122;28;20039;-83
2022/03/16 11:41:56;;;;;;;8.93;4.90;;;;;;;8.10;92.49;102265.50;4960239;28;20073;-83
2022/03/16 11:44:26;;;;;;;11.00;5.63;;;;;;;8.15;92.75;102269.09;4965512;28;20042;-83
2022/03/16 11:47:23;;;;;;;6.73;4.33;;;;;;;8.02;94.06;102261.88;4972814;28;20057;-82
2022/03/16 11:50:11;;;;;;;8.30;4.73;;;;;;;8.15;92.75;102264.69;4967635;28;20062;-82
2022/03/16 11:52:59;;;;;;;8.77;4.70;;;;;;;8.14;93.49;102260.31;4952255;28;20093;-83